sensor_id;sensor_type;location;lat;lon;timestamp;P1;durP1;ratioP1;P2;durP2;ratioP2
28086;SDS011;15392;48.912;8.380;2022-10-29T00:00:29;3.78;;;1.52;;
28086;SDS011;15392;48.912;8.380;2022-10-29T00:02:54;3.17;;;1.45;;
28086;SDS011;15392;48.912;8.380;2022-10-29T00:05:20;1.90;;;1.40;;
28086;SDS011;15392;48.912;8.380;2022-10-29T00:07:46;2.17;;;1.20;;
28086;SDS011;15392;48.912;8.380;2022-10-29T00:10:11;3.30;;;1.60;;
28086;SDS011;15392;48.912;8.380;2022-10-29T00:12:37;1.50;;;1.08;;
28086;SDS011;15392;48.912;8.380;2022-10-29T00:15:03;3.22;;;1.75;;
28086;SDS011;15392;48.912;8.380;2022-10-29T00:17:29;2.47;;;1.55;;
28086;SDS011;15392;48.912;8.380;2022-10-29T00:19:56;4.20;;;1.63;;
28086;SDS011;15392;48.912;8.380;2022-10-29T00:22:22;2.53;;;1.30;;
28086;SDS011;15392;48.912;8.380;2022-10-29T00:24:47;1.45;;;1.35;;
28086;SDS011;15392;48.912;8.380;2022-10-29T00:27:13;4.05;;;1.70;;
28086;SDS011;15392;48.912;8.380;2022-10-29T00:29:39;1.35;;;1.10;;
28086;SDS011;15392;48.912;8.380;2022-10-29T00:32:08;2.45;;;1.10;;
28086;SDS011;15392;48.912;8.380;2022-10-29T00:34:34;1.17;;;1.10;;
28086;SDS011;15392;48.912;8.380;2022-10-29T00:37:02;1.63;;;1.48;;
28086;SDS011;15392;48.912;8.380;2022-10-29T00:39:28;3.95;;;1.50;;
28086;SDS011;15392;48.912;8.380;2022-10-29T00:41:54;1.88;;;1.30;;
28086;SDS011;15392;48.912;8.380;2022-10-29T00:44:27;1.27;;;1.17;;
28086;SDS011;15392;48.912;8.380;2022-10-29T00:52:37;2.28;;;1.35;;
28086;SDS011;15392;48.912;8.380;2022-10-29T00:55:08;3.47;;;1.38;;
28086;SDS011;15392;48.912;8.380;2022-10-29T00:57:37;2.20;;;1.40;;
28086;SDS011;15392;48.912;8.380;2022-10-29T01:00:08;3.80;;;1.23;;
28086;SDS011;15392;48.912;8.380;2022-10-29T01:02:35;2.63;;;1.27;;
28086;SDS011;15392;48.912;8.380;2022-10-29T01:05:02;2.47;;;1.10;;
28086;SDS011;15392;48.912;8.380;2022-10-29T01:07:30;2.03;;;1.30;;
28086;SDS011;15392;48.912;8.380;2022-10-29T01:09:56;2.15;;;1.45;;
28086;SDS011;15392;48.912;8.380;2022-10-29T01:12:32;2.65;;;1.25;;
28086;SDS011;15392;48.912;8.380;2022-10-29T01:21:27;1.73;;;1.63;;
28086;SDS011;15392;48.912;8.380;2022-10-29T01:32:30;1.98;;;1.40;;
28086;SDS011;15392;48.912;8.380;2022-10-29T01:35:28;3.15;;;1.50;;
28086;SDS011;15392;48.912;8.380;2022-10-29T01:38:24;2.60;;;1.45;;
28086;SDS011;15392;48.912;8.380;2022-10-29T01:43:33;2.08;;;1.05;;
28086;SDS011;15392;48.912;8.380;2022-10-29T01:46:10;2.70;;;1.58;;
28086;SDS011;15392;48.912;8.380;2022-10-29T01:48:43;1.48;;;1.00;;
28086;SDS011;15392;48.912;8.380;2022-10-29T01:51:15;2.90;;;1.10;;
28086;SDS011;15392;48.912;8.380;2022-10-29T01:53:46;2.88;;;1.40;;
28086;SDS011;15392;48.912;8.380;2022-10-29T01:56:13;1.75;;;1.35;;
28086;SDS011;15392;48.912;8.380;2022-10-29T01:58:39;3.13;;;1.25;;
28086;SDS011;15392;48.912;8.380;2022-10-29T02:07:45;1.80;;;1.13;;
28086;SDS011;15392;48.912;8.380;2022-10-29T02:10:37;1.10;;;0.90;;
28086;SDS011;15392;48.912;8.380;2022-10-29T02:13:15;2.60;;;1.13;;
28086;SDS011;15392;48.912;8.380;2022-10-29T02:15:50;4.75;;;1.58;;
28086;SDS011;15392;48.912;8.380;2022-10-29T02:18:18;1.33;;;1.23;;
28086;SDS011;15392;48.912;8.380;2022-10-29T02:20:44;1.48;;;1.23;;
28086;SDS011;15392;48.912;8.380;2022-10-29T02:23:11;1.60;;;1.23;;
28086;SDS011;15392;48.912;8.380;2022-10-29T02:25:38;2.70;;;1.20;;
28086;SDS011;15392;48.912;8.380;2022-10-29T02:28:04;2.45;;;1.25;;
28086;SDS011;15392;48.912;8.380;2022-10-29T02:30:30;2.33;;;0.95;;
28086;SDS011;15392;48.912;8.380;2022-10-29T02:32:55;1.92;;;1.30;;
28086;SDS011;15392;48.912;8.380;2022-10-29T02:35:21;1.17;;;1.00;;
28086;SDS011;15392;48.912;8.380;2022-10-29T02:37:47;2.22;;;1.20;;
28086;SDS011;15392;48.912;8.380;2022-10-29T02:40:13;1.08;;;0.73;;
28086;SDS011;15392;48.912;8.380;2022-10-29T02:42:39;2.67;;;1.40;;
28086;SDS011;15392;48.912;8.380;2022-10-29T02:45:05;1.77;;;1.10;;
28086;SDS011;15392;48.912;8.380;2022-10-29T02:47:31;2.55;;;0.98;;
28086;SDS011;15392;48.912;8.380;2022-10-29T02:49:56;1.30;;;1.10;;
28086;SDS011;15392;48.912;8.380;2022-10-29T02:52:22;1.27;;;1.05;;
28086;SDS011;15392;48.912;8.380;2022-10-29T02:54:48;2.58;;;1.10;;
28086;SDS011;15392;48.912;8.380;2022-10-29T02:57:14;1.33;;;1.20;;
28086;SDS011;15392;48.912;8.380;2022-10-29T02:59:39;1.65;;;1.23;;
28086;SDS011;15392;48.912;8.380;2022-10-29T03:02:05;2.03;;;1.08;;
28086;SDS011;15392;48.912;8.380;2022-10-29T03:04:31;6.53;;;1.27;;
28086;SDS011;15392;48.912;8.380;2022-10-29T03:06:57;2.25;;;1.30;;
28086;SDS011;15392;48.912;8.380;2022-10-29T03:09:24;1.02;;;0.82;;
28086;SDS011;15392;48.912;8.380;2022-10-29T03:11:49;3.38;;;1.30;;
28086;SDS011;15392;48.912;8.380;2022-10-29T03:14:15;1.85;;;1.13;;
28086;SDS011;15392;48.912;8.380;2022-10-29T03:16:41;1.75;;;1.20;;
28086;SDS011;15392;48.912;8.380;2022-10-29T03:19:07;1.98;;;1.05;;
28086;SDS011;15392;48.912;8.380;2022-10-29T03:21:32;1.70;;;1.30;;
28086;SDS011;15392;48.912;8.380;2022-10-29T03:23:58;1.40;;;1.30;;
28086;SDS011;15392;48.912;8.380;2022-10-29T03:26:24;2.70;;;1.08;;
28086;SDS011;15392;48.912;8.380;2022-10-29T03:28:50;2.50;;;0.98;;
28086;SDS011;15392;48.912;8.380;2022-10-29T03:31:16;2.15;;;1.10;;
28086;SDS011;15392;48.912;8.380;2022-10-29T03:33:42;1.80;;;0.80;;
28086;SDS011;15392;48.912;8.380;2022-10-29T03:36:07;1.50;;;1.02;;
28086;SDS011;15392;48.912;8.380;2022-10-29T03:38:33;1.98;;;1.23;;
28086;SDS011;15392;48.912;8.380;2022-10-29T03:40:59;2.47;;;1.10;;
28086;SDS011;15392;48.912;8.380;2022-10-29T03:43:25;3.03;;;1.35;;
28086;SDS011;15392;48.912;8.380;2022-10-29T03:45:52;1.58;;;1.10;;
28086;SDS011;15392;48.912;8.380;2022-10-29T03:48:21;1.30;;;0.85;;
28086;SDS011;15392;48.912;8.380;2022-10-29T03:53:25;4.15;;;1.30;;
28086;SDS011;15392;48.912;8.380;2022-10-29T03:55:53;2.22;;;1.10;;
28086;SDS011;15392;48.912;8.380;2022-10-29T03:58:21;1.45;;;1.35;;
28086;SDS011;15392;48.912;8.380;2022-10-29T04:00:58;1.80;;;1.10;;
28086;SDS011;15392;48.912;8.380;2022-10-29T04:03:26;1.23;;;1.13;;
28086;SDS011;15392;48.912;8.380;2022-10-29T04:05:54;2.00;;;1.00;;
28086;SDS011;15392;48.912;8.380;2022-10-29T04:08:20;1.00;;;0.90;;
28086;SDS011;15392;48.912;8.380;2022-10-29T04:10:47;1.55;;;1.40;;
28086;SDS011;15392;48.912;8.380;2022-10-29T04:13:14;2.15;;;1.20;;
28086;SDS011;15392;48.912;8.380;2022-10-29T04:15:40;1.35;;;1.10;;
28086;SDS011;15392;48.912;8.380;2022-10-29T04:18:07;2.00;;;1.17;;
28086;SDS011;15392;48.912;8.380;2022-10-29T04:20:34;3.95;;;1.27;;
28086;SDS011;15392;48.912;8.380;2022-10-29T04:23:00;1.58;;;1.10;;
28086;SDS011;15392;48.912;8.380;2022-10-29T04:25:26;1.15;;;1.00;;
28086;SDS011;15392;48.912;8.380;2022-10-29T04:27:55;1.25;;;1.10;;
28086;SDS011;15392;48.912;8.380;2022-10-29T04:30:21;2.05;;;1.20;;
28086;SDS011;15392;48.912;8.380;2022-10-29T04:32:48;4.03;;;1.20;;
28086;SDS011;15392;48.912;8.380;2022-10-29T04:35:14;1.77;;;1.23;;
28086;SDS011;15392;48.912;8.380;2022-10-29T04:37:41;2.03;;;1.20;;
28086;SDS011;15392;48.912;8.380;2022-10-29T04:40:06;2.08;;;1.17;;
28086;SDS011;15392;48.912;8.380;2022-10-29T04:42:36;1.83;;;0.98;;
28086;SDS011;15392;48.912;8.380;2022-10-29T04:45:04;1.00;;;1.00;;
28086;SDS011;15392;48.912;8.380;2022-10-29T04:47:31;2.10;;;1.23;;
28086;SDS011;15392;48.912;8.380;2022-10-29T04:49:57;1.88;;;1.35;;
28086;SDS011;15392;48.912;8.380;2022-10-29T04:52:23;2.47;;;1.25;;
28086;SDS011;15392;48.912;8.380;2022-10-29T04:54:49;1.27;;;1.15;;
28086;SDS011;15392;48.912;8.380;2022-10-29T04:57:14;1.15;;;1.05;;
28086;SDS011;15392;48.912;8.380;2022-10-29T04:59:40;1.65;;;1.30;;
28086;SDS011;15392;48.912;8.380;2022-10-29T05:02:06;1.35;;;0.98;;
28086;SDS011;15392;48.912;8.380;2022-10-29T05:04:32;2.63;;;1.25;;
28086;SDS011;15392;48.912;8.380;2022-10-29T05:06:58;1.20;;;0.95;;
28086;SDS011;15392;48.912;8.380;2022-10-29T05:09:23;1.25;;;1.15;;
28086;SDS011;15392;48.912;8.380;2022-10-29T05:11:49;1.52;;;1.40;;
28086;SDS011;15392;48.912;8.380;2022-10-29T05:14:15;1.63;;;1.20;;
28086;SDS011;15392;48.912;8.380;2022-10-29T05:16:40;1.20;;;1.10;;
28086;SDS011;15392;48.912;8.380;2022-10-29T05:19:06;1.27;;;1.17;;
28086;SDS011;15392;48.912;8.380;2022-10-29T05:21:32;1.55;;;1.10;;
28086;SDS011;15392;48.912;8.380;2022-10-29T05:23:57;4.10;;;1.25;;
28086;SDS011;15392;48.912;8.380;2022-10-29T05:26:23;0.93;;;0.93;;
28086;SDS011;15392;48.912;8.380;2022-10-29T05:28:49;1.20;;;1.10;;
28086;SDS011;15392;48.912;8.380;2022-10-29T05:31:16;1.88;;;1.20;;
28086;SDS011;15392;48.912;8.380;2022-10-29T05:33:42;1.35;;;1.13;;
28086;SDS011;15392;48.912;8.380;2022-10-29T05:36:08;1.00;;;0.98;;
28086;SDS011;15392;48.912;8.380;2022-10-29T05:38:34;2.35;;;1.02;;
28086;SDS011;15392;48.912;8.380;2022-10-29T05:41:00;1.92;;;1.10;;
28086;SDS011;15392;48.912;8.380;2022-10-29T05:43:26;1.30;;;1.20;;
28086;SDS011;15392;48.912;8.380;2022-10-29T05:45:52;2.13;;;1.17;;
28086;SDS011;15392;48.912;8.380;2022-10-29T05:48:18;0.95;;;0.95;;
28086;SDS011;15392;48.912;8.380;2022-10-29T05:50:44;1.00;;;0.90;;
28086;SDS011;15392;48.912;8.380;2022-10-29T05:53:11;2.38;;;1.30;;
28086;SDS011;15392;48.912;8.380;2022-10-29T05:55:38;2.08;;;1.05;;
28086;SDS011;15392;48.912;8.380;2022-10-29T05:58:06;1.85;;;1.15;;
28086;SDS011;15392;48.912;8.380;2022-10-29T06:00:37;1.88;;;0.98;;
28086;SDS011;15392;48.912;8.380;2022-10-29T06:03:12;4.15;;;1.75;;
28086;SDS011;15392;48.912;8.380;2022-10-29T06:05:47;2.42;;;1.40;;
28086;SDS011;15392;48.912;8.380;2022-10-29T06:08:14;1.85;;;1.10;;
28086;SDS011;15392;48.912;8.380;2022-10-29T06:10:41;1.25;;;1.02;;
28086;SDS011;15392;48.912;8.380;2022-10-29T06:13:11;1.70;;;1.23;;
28086;SDS011;15392;48.912;8.380;2022-10-29T06:15:39;1.40;;;1.10;;
28086;SDS011;15392;48.912;8.380;2022-10-29T06:18:05;1.60;;;1.25;;
28086;SDS011;15392;48.912;8.380;2022-10-29T06:20:31;1.38;;;1.20;;
28086;SDS011;15392;48.912;8.380;2022-10-29T06:22:57;1.30;;;1.13;;
28086;SDS011;15392;48.912;8.380;2022-10-29T06:25:23;2.38;;;1.35;;
28086;SDS011;15392;48.912;8.380;2022-10-29T06:27:57;1.90;;;1.33;;
28086;SDS011;15392;48.912;8.380;2022-10-29T06:30:28;1.63;;;1.40;;
28086;SDS011;15392;48.912;8.380;2022-10-29T06:32:55;1.30;;;1.00;;
28086;SDS011;15392;48.912;8.380;2022-10-29T06:35:21;1.50;;;1.25;;
28086;SDS011;15392;48.912;8.380;2022-10-29T06:37:48;1.50;;;1.27;;
28086;SDS011;15392;48.912;8.380;2022-10-29T06:40:14;1.33;;;1.23;;
28086;SDS011;15392;48.912;8.380;2022-10-29T06:42:39;1.70;;;1.30;;
28086;SDS011;15392;48.912;8.380;2022-10-29T06:45:05;3.35;;;1.40;;
28086;SDS011;15392;48.912;8.380;2022-10-29T06:50:05;4.28;;;1.48;;
28086;SDS011;15392;48.912;8.380;2022-10-29T06:52:32;1.83;;;1.50;;
28086;SDS011;15392;48.912;8.380;2022-10-29T06:54:58;1.45;;;1.35;;
28086;SDS011;15392;48.912;8.380;2022-10-29T06:57:26;1.60;;;1.20;;
28086;SDS011;15392;48.912;8.380;2022-10-29T06:59:53;1.38;;;1.25;;
28086;SDS011;15392;48.912;8.380;2022-10-29T07:02:19;1.80;;;1.13;;
28086;SDS011;15392;48.912;8.380;2022-10-29T07:04:46;1.30;;;1.20;;
28086;SDS011;15392;48.912;8.380;2022-10-29T07:07:12;1.20;;;1.08;;
28086;SDS011;15392;48.912;8.380;2022-10-29T07:09:38;1.77;;;1.00;;
28086;SDS011;15392;48.912;8.380;2022-10-29T07:12:04;1.90;;;1.15;;
28086;SDS011;15392;48.912;8.380;2022-10-29T07:14:30;1.25;;;1.10;;
28086;SDS011;15392;48.912;8.380;2022-10-29T07:16:56;1.58;;;1.20;;
28086;SDS011;15392;48.912;8.380;2022-10-29T07:19:22;0.88;;;0.88;;
28086;SDS011;15392;48.912;8.380;2022-10-29T07:21:48;1.60;;;1.17;;
28086;SDS011;15392;48.912;8.380;2022-10-29T07:24:14;3.00;;;1.17;;
28086;SDS011;15392;48.912;8.380;2022-10-29T07:26:41;1.77;;;1.30;;
28086;SDS011;15392;48.912;8.380;2022-10-29T07:29:08;1.75;;;1.48;;
28086;SDS011;15392;48.912;8.380;2022-10-29T07:31:34;2.50;;;1.17;;
28086;SDS011;15392;48.912;8.380;2022-10-29T07:34:00;1.48;;;1.38;;
28086;SDS011;15392;48.912;8.380;2022-10-29T07:36:25;1.40;;;1.30;;
28086;SDS011;15392;48.912;8.380;2022-10-29T07:38:54;2.80;;;1.70;;
28086;SDS011;15392;48.912;8.380;2022-10-29T07:41:19;1.70;;;1.60;;
28086;SDS011;15392;48.912;8.380;2022-10-29T07:43:45;1.63;;;1.45;;
28086;SDS011;15392;48.912;8.380;2022-10-29T07:46:11;2.00;;;1.48;;
28086;SDS011;15392;48.912;8.380;2022-10-29T07:48:37;2.95;;;1.63;;
28086;SDS011;15392;48.912;8.380;2022-10-29T07:51:03;4.25;;;1.55;;
28086;SDS011;15392;48.912;8.380;2022-10-29T07:53:28;2.67;;;2.00;;
28086;SDS011;15392;48.912;8.380;2022-10-29T07:55:57;1.65;;;1.55;;
28086;SDS011;15392;48.912;8.380;2022-10-29T07:58:23;1.92;;;1.60;;
28086;SDS011;15392;48.912;8.380;2022-10-29T08:00:50;1.90;;;1.80;;
28086;SDS011;15392;48.912;8.380;2022-10-29T08:03:16;3.13;;;1.92;;
28086;SDS011;15392;48.912;8.380;2022-10-29T08:05:42;2.35;;;2.15;;
28086;SDS011;15392;48.912;8.380;2022-10-29T08:08:10;5.22;;;2.28;;
28086;SDS011;15392;48.912;8.380;2022-10-29T08:10:36;2.70;;;2.50;;
28086;SDS011;15392;48.912;8.380;2022-10-29T08:13:03;2.45;;;2.33;;
28086;SDS011;15392;48.912;8.380;2022-10-29T08:15:31;2.47;;;2.28;;
28086;SDS011;15392;48.912;8.380;2022-10-29T08:17:58;2.35;;;2.25;;
28086;SDS011;15392;48.912;8.380;2022-10-29T08:20:26;2.47;;;2.25;;
28086;SDS011;15392;48.912;8.380;2022-10-29T08:22:53;2.22;;;2.03;;
28086;SDS011;15392;48.912;8.380;2022-10-29T08:25:19;2.38;;;2.17;;
28086;SDS011;15392;48.912;8.380;2022-10-29T08:27:51;2.33;;;2.22;;
28086;SDS011;15392;48.912;8.380;2022-10-29T08:30:27;2.30;;;2.10;;
28086;SDS011;15392;48.912;8.380;2022-10-29T08:32:54;2.30;;;2.10;;
28086;SDS011;15392;48.912;8.380;2022-10-29T08:35:19;2.08;;;1.98;;
28086;SDS011;15392;48.912;8.380;2022-10-29T08:37:45;2.00;;;1.90;;
28086;SDS011;15392;48.912;8.380;2022-10-29T08:40:19;1.75;;;1.60;;
28086;SDS011;15392;48.912;8.380;2022-10-29T08:45:58;1.50;;;1.40;;
28086;SDS011;15392;48.912;8.380;2022-10-29T08:48:30;1.50;;;1.25;;
28086;SDS011;15392;48.912;8.380;2022-10-29T08:51:22;0.93;;;0.93;;
28086;SDS011;15392;48.912;8.380;2022-10-29T08:53:54;1.38;;;1.27;;
28086;SDS011;15392;48.912;8.380;2022-10-29T08:56:26;3.20;;;1.35;;
28086;SDS011;15392;48.912;8.380;2022-10-29T09:01:48;2.33;;;1.60;;
28086;SDS011;15392;48.912;8.380;2022-10-29T09:04:24;3.72;;;1.85;;
28086;SDS011;15392;48.912;8.380;2022-10-29T09:12:40;2.38;;;1.70;;
28086;SDS011;15392;48.912;8.380;2022-10-29T09:15:34;1.75;;;1.65;;
28086;SDS011;15392;48.912;8.380;2022-10-29T09:21:32;2.17;;;1.98;;
28086;SDS011;15392;48.912;8.380;2022-10-29T09:24:14;7.07;;;1.80;;
28086;SDS011;15392;48.912;8.380;2022-10-29T09:26:57;2.65;;;1.85;;
28086;SDS011;15392;48.912;8.380;2022-10-29T09:32:35;3.38;;;2.88;;
28086;SDS011;15392;48.912;8.380;2022-10-29T09:35:27;2.38;;;2.22;;
28086;SDS011;15392;48.912;8.380;2022-10-29T09:38:04;2.03;;;1.92;;
28086;SDS011;15392;48.912;8.380;2022-10-29T09:40:41;2.75;;;2.22;;
28086;SDS011;15392;48.912;8.380;2022-10-29T09:43:14;2.20;;;2.10;;
28086;SDS011;15392;48.912;8.380;2022-10-29T09:48:37;2.00;;;1.85;;
28086;SDS011;15392;48.912;8.380;2022-10-29T09:54:13;1.52;;;1.42;;
28086;SDS011;15392;48.912;8.380;2022-10-29T09:56:41;2.95;;;1.33;;
28086;SDS011;15392;48.912;8.380;2022-10-29T10:01:53;4.05;;;1.10;;
28086;SDS011;15392;48.912;8.380;2022-10-29T10:04:21;2.05;;;1.45;;
28086;SDS011;15392;48.912;8.380;2022-10-29T10:07:08;1.42;;;1.27;;
28086;SDS011;15392;48.912;8.380;2022-10-29T10:09:49;1.40;;;1.30;;
28086;SDS011;15392;48.912;8.380;2022-10-29T10:12:21;3.30;;;3.03;;
28086;SDS011;15392;48.912;8.380;2022-10-29T10:18:02;2.42;;;2.33;;
28086;SDS011;15392;48.912;8.380;2022-10-29T10:22:56;3.22;;;1.70;;
28086;SDS011;15392;48.912;8.380;2022-10-29T10:25:33;1.50;;;1.40;;
28086;SDS011;15392;48.912;8.380;2022-10-29T10:31:09;2.28;;;1.30;;
28086;SDS011;15392;48.912;8.380;2022-10-29T10:33:47;2.72;;;1.70;;
28086;SDS011;15392;48.912;8.380;2022-10-29T10:36:17;1.35;;;1.20;;
28086;SDS011;15392;48.912;8.380;2022-10-29T10:38:50;1.30;;;1.20;;
28086;SDS011;15392;48.912;8.380;2022-10-29T10:41:23;1.27;;;1.15;;
28086;SDS011;15392;48.912;8.380;2022-10-29T10:43:59;2.08;;;1.77;;
28086;SDS011;15392;48.912;8.380;2022-10-29T10:46:37;1.23;;;1.13;;
28086;SDS011;15392;48.912;8.380;2022-10-29T10:49:11;1.30;;;1.20;;
28086;SDS011;15392;48.912;8.380;2022-10-29T10:51:42;0.90;;;0.90;;
28086;SDS011;15392;48.912;8.380;2022-10-29T10:57:26;1.17;;;1.08;;
28086;SDS011;15392;48.912;8.380;2022-10-29T11:00:04;1.63;;;1.27;;
28086;SDS011;15392;48.912;8.380;2022-10-29T11:07:57;1.60;;;1.20;;
28086;SDS011;15392;48.912;8.380;2022-10-29T11:10:51;1.52;;;1.10;;
28086;SDS011;15392;48.912;8.380;2022-10-29T11:13:21;1.35;;;1.00;;
28086;SDS011;15392;48.912;8.380;2022-10-29T11:16:26;1.05;;;0.98;;
28086;SDS011;15392;48.912;8.380;2022-10-29T11:18:52;1.58;;;1.40;;
28086;SDS011;15392;48.912;8.380;2022-10-29T11:22:15;1.50;;;1.08;;
28086;SDS011;15392;48.912;8.380;2022-10-29T11:25:16;1.25;;;1.15;;
28086;SDS011;15392;48.912;8.380;2022-10-29T11:30:45;1.98;;;1.10;;
28086;SDS011;15392;48.912;8.380;2022-10-29T11:33:20;1.30;;;1.08;;
28086;SDS011;15392;48.912;8.380;2022-10-29T11:38:49;0.88;;;0.82;;
28086;SDS011;15392;48.912;8.380;2022-10-29T11:41:24;1.15;;;1.00;;
28086;SDS011;15392;48.912;8.380;2022-10-29T11:44:08;1.42;;;1.05;;
28086;SDS011;15392;48.912;8.380;2022-10-29T11:46:39;2.33;;;1.30;;
28086;SDS011;15392;48.912;8.380;2022-10-29T11:49:50;1.13;;;1.02;;
28086;SDS011;15392;48.912;8.380;2022-10-29T11:58:15;1.48;;;1.05;;
28086;SDS011;15392;48.912;8.380;2022-10-29T12:01:04;1.55;;;1.20;;
28086;SDS011;15392;48.912;8.380;2022-10-29T12:03:50;1.40;;;1.10;;
28086;SDS011;15392;48.912;8.380;2022-10-29T12:12:52;1.92;;;1.15;;
28086;SDS011;15392;48.912;8.380;2022-10-29T12:16:09;1.42;;;1.15;;
28086;SDS011;15392;48.912;8.380;2022-10-29T12:19:05;0.82;;;0.82;;
28086;SDS011;15392;48.912;8.380;2022-10-29T12:21:53;1.40;;;1.30;;
28086;SDS011;15392;48.912;8.380;2022-10-29T12:27:31;1.40;;;1.30;;
28086;SDS011;15392;48.912;8.380;2022-10-29T12:30:08;3.17;;;1.23;;
28086;SDS011;15392;48.912;8.380;2022-10-29T12:36:30;0.98;;;0.90;;
28086;SDS011;15392;48.912;8.380;2022-10-29T12:39:21;3.00;;;1.30;;
28086;SDS011;15392;48.912;8.380;2022-10-29T12:41:56;1.55;;;0.95;;
28086;SDS011;15392;48.912;8.380;2022-10-29T12:44:28;2.03;;;1.20;;
28086;SDS011;15392;48.912;8.380;2022-10-29T12:47:19;2.75;;;0.98;;
28086;SDS011;15392;48.912;8.380;2022-10-29T12:52:46;3.15;;;1.25;;
28086;SDS011;15392;48.912;8.380;2022-10-29T12:55:41;1.30;;;1.15;;
28086;SDS011;15392;48.912;8.380;2022-10-29T13:09:33;1.02;;;0.90;;
28086;SDS011;15392;48.912;8.380;2022-10-29T13:17:44;1.77;;;1.05;;
28086;SDS011;15392;48.912;8.380;2022-10-29T13:20:20;1.10;;;1.00;;
28086;SDS011;15392;48.912;8.380;2022-10-29T13:23:13;1.65;;;1.00;;
28086;SDS011;15392;48.912;8.380;2022-10-29T13:25:52;1.27;;;0.80;;
28086;SDS011;15392;48.912;8.380;2022-10-29T13:30:52;1.15;;;1.05;;
28086;SDS011;15392;48.912;8.380;2022-10-29T13:36:07;2.55;;;1.00;;
28086;SDS011;15392;48.912;8.380;2022-10-29T13:47:03;1.13;;;1.02;;
28086;SDS011;15392;48.912;8.380;2022-10-29T13:49:45;1.40;;;1.05;;
28086;SDS011;15392;48.912;8.380;2022-10-29T13:52:16;2.20;;;1.15;;
28086;SDS011;15392;48.912;8.380;2022-10-29T13:54:51;1.55;;;1.27;;
28086;SDS011;15392;48.912;8.380;2022-10-29T14:08:18;0.90;;;0.90;;
28086;SDS011;15392;48.912;8.380;2022-10-29T14:10:55;1.63;;;1.00;;
28086;SDS011;15392;48.912;8.380;2022-10-29T14:16:15;1.23;;;0.82;;
28086;SDS011;15392;48.912;8.380;2022-10-29T14:21:17;0.95;;;0.80;;
28086;SDS011;15392;48.912;8.380;2022-10-29T14:23:59;0.98;;;0.90;;
28086;SDS011;15392;48.912;8.380;2022-10-29T14:26:28;2.63;;;1.00;;
28086;SDS011;15392;48.912;8.380;2022-10-29T14:31:47;1.92;;;1.00;;
28086;SDS011;15392;48.912;8.380;2022-10-29T14:34:31;0.93;;;0.88;;
28086;SDS011;15392;48.912;8.380;2022-10-29T14:37:05;1.10;;;1.00;;
28086;SDS011;15392;48.912;8.380;2022-10-29T14:40:00;1.15;;;1.05;;
28086;SDS011;15392;48.912;8.380;2022-10-29T14:42:36;1.50;;;0.88;;
28086;SDS011;15392;48.912;8.380;2022-10-29T14:45:06;2.45;;;1.13;;
28086;SDS011;15392;48.912;8.380;2022-10-29T14:47:41;1.48;;;1.05;;
28086;SDS011;15392;48.912;8.380;2022-10-29T14:50:13;2.22;;;1.05;;
28086;SDS011;15392;48.912;8.380;2022-10-29T14:52:46;1.33;;;0.90;;
28086;SDS011;15392;48.912;8.380;2022-10-29T14:55:22;1.20;;;1.10;;
28086;SDS011;15392;48.912;8.380;2022-10-29T14:58:11;2.08;;;1.00;;
28086;SDS011;15392;48.912;8.380;2022-10-29T15:03:24;1.58;;;1.10;;
28086;SDS011;15392;48.912;8.380;2022-10-29T15:06:11;1.42;;;1.20;;
28086;SDS011;15392;48.912;8.380;2022-10-29T15:08:53;1.15;;;0.93;;
28086;SDS011;15392;48.912;8.380;2022-10-29T15:11:29;0.98;;;0.82;;
28086;SDS011;15392;48.912;8.380;2022-10-29T15:14:03;2.65;;;1.17;;
28086;SDS011;15392;48.912;8.380;2022-10-29T15:16:49;0.90;;;0.90;;
28086;SDS011;15392;48.912;8.380;2022-10-29T15:19:15;3.40;;;1.10;;
28086;SDS011;15392;48.912;8.380;2022-10-29T15:21:41;1.33;;;1.23;;
28086;SDS011;15392;48.912;8.380;2022-10-29T15:24:08;1.52;;;1.27;;
28086;SDS011;15392;48.912;8.380;2022-10-29T15:26:46;2.72;;;1.10;;
28086;SDS011;15392;48.912;8.380;2022-10-29T15:29:17;1.55;;;1.00;;
28086;SDS011;15392;48.912;8.380;2022-10-29T15:31:49;1.30;;;1.00;;
28086;SDS011;15392;48.912;8.380;2022-10-29T15:34:24;0.95;;;0.88;;
28086;SDS011;15392;48.912;8.380;2022-10-29T15:37:12;1.15;;;0.90;;
28086;SDS011;15392;48.912;8.380;2022-10-29T15:42:21;1.45;;;1.27;;
28086;SDS011;15392;48.912;8.380;2022-10-29T15:47:30;1.65;;;1.20;;
28086;SDS011;15392;48.912;8.380;2022-10-29T15:49:55;1.73;;;1.20;;
28086;SDS011;15392;48.912;8.380;2022-10-29T15:52:23;1.30;;;1.13;;
28086;SDS011;15392;48.912;8.380;2022-10-29T15:54:55;2.70;;;1.20;;
28086;SDS011;15392;48.912;8.380;2022-10-29T15:57:21;1.42;;;1.33;;
28086;SDS011;15392;48.912;8.380;2022-10-29T15:59:47;1.10;;;1.10;;
28086;SDS011;15392;48.912;8.380;2022-10-29T16:02:14;1.45;;;1.35;;
28086;SDS011;15392;48.912;8.380;2022-10-29T16:04:43;1.15;;;1.08;;
28086;SDS011;15392;48.912;8.380;2022-10-29T16:07:12;1.38;;;1.10;;
28086;SDS011;15392;48.912;8.380;2022-10-29T16:09:41;1.60;;;0.98;;
28086;SDS011;15392;48.912;8.380;2022-10-29T16:12:12;1.35;;;1.02;;
28086;SDS011;15392;48.912;8.380;2022-10-29T16:14:38;3.15;;;1.25;;
28086;SDS011;15392;48.912;8.380;2022-10-29T16:17:17;1.42;;;0.93;;
28086;SDS011;15392;48.912;8.380;2022-10-29T16:19:45;1.20;;;1.00;;
28086;SDS011;15392;48.912;8.380;2022-10-29T16:22:26;1.00;;;0.90;;
28086;SDS011;15392;48.912;8.380;2022-10-29T16:24:53;1.48;;;1.38;;
28086;SDS011;15392;48.912;8.380;2022-10-29T16:27:19;2.42;;;1.13;;
28086;SDS011;15392;48.912;8.380;2022-10-29T16:29:45;1.40;;;1.00;;
28086;SDS011;15392;48.912;8.380;2022-10-29T16:32:14;1.20;;;0.93;;
28086;SDS011;15392;48.912;8.380;2022-10-29T16:34:43;3.08;;;2.78;;
28086;SDS011;15392;48.912;8.380;2022-10-29T16:37:13;8.38;;;5.07;;
28086;SDS011;15392;48.912;8.380;2022-10-29T16:39:41;3.58;;;3.28;;
28086;SDS011;15392;48.912;8.380;2022-10-29T16:45:03;4.18;;;2.42;;
28086;SDS011;15392;48.912;8.380;2022-10-29T16:47:34;1.92;;;1.75;;
28086;SDS011;15392;48.912;8.380;2022-10-29T16:50:00;1.75;;;1.65;;
28086;SDS011;15392;48.912;8.380;2022-10-29T16:52:26;1.40;;;1.25;;
28086;SDS011;15392;48.912;8.380;2022-10-29T16:54:52;1.42;;;1.17;;
28086;SDS011;15392;48.912;8.380;2022-10-29T16:57:17;1.58;;;1.45;;
28086;SDS011;15392;48.912;8.380;2022-10-29T16:59:43;1.92;;;1.20;;
28086;SDS011;15392;48.912;8.380;2022-10-29T17:02:09;1.85;;;1.13;;
28086;SDS011;15392;48.912;8.380;2022-10-29T17:04:36;1.70;;;1.10;;
28086;SDS011;15392;48.912;8.380;2022-10-29T17:07:01;1.88;;;1.00;;
28086;SDS011;15392;48.912;8.380;2022-10-29T17:09:27;1.48;;;1.10;;
28086;SDS011;15392;48.912;8.380;2022-10-29T17:11:55;1.42;;;1.10;;
28086;SDS011;15392;48.912;8.380;2022-10-29T17:14:22;1.25;;;0.98;;
28086;SDS011;15392;48.912;8.380;2022-10-29T17:16:48;1.67;;;1.20;;
28086;SDS011;15392;48.912;8.380;2022-10-29T17:19:14;1.67;;;1.30;;
28086;SDS011;15392;48.912;8.380;2022-10-29T17:21:40;2.47;;;1.10;;
28086;SDS011;15392;48.912;8.380;2022-10-29T17:24:06;2.05;;;1.27;;
28086;SDS011;15392;48.912;8.380;2022-10-29T17:26:32;2.03;;;1.40;;
28086;SDS011;15392;48.912;8.380;2022-10-29T17:28:58;1.58;;;1.33;;
28086;SDS011;15392;48.912;8.380;2022-10-29T17:31:24;3.67;;;1.38;;
28086;SDS011;15392;48.912;8.380;2022-10-29T17:33:51;1.30;;;1.20;;
28086;SDS011;15392;48.912;8.380;2022-10-29T17:36:17;1.30;;;1.20;;
28086;SDS011;15392;48.912;8.380;2022-10-29T17:38:43;2.30;;;1.25;;
28086;SDS011;15392;48.912;8.380;2022-10-29T17:41:09;2.33;;;1.30;;
28086;SDS011;15392;48.912;8.380;2022-10-29T17:43:35;1.33;;;1.10;;
28086;SDS011;15392;48.912;8.380;2022-10-29T17:46:01;1.60;;;1.10;;
28086;SDS011;15392;48.912;8.380;2022-10-29T17:48:28;1.20;;;1.10;;
28086;SDS011;15392;48.912;8.380;2022-10-29T17:50:54;1.58;;;1.00;;
28086;SDS011;15392;48.912;8.380;2022-10-29T17:53:23;3.83;;;1.10;;
28086;SDS011;15392;48.912;8.380;2022-10-29T17:55:50;3.00;;;1.30;;